sensor_id;sensor_type;location;lat;lon;timestamp;pressure;altitude;pressure_sealevel;temperature;humidity
28606;BME280;46498;49.968;7.754;2022-09-09T00:03:12;96632.00;;;14.36;100.00
28606;BME280;46498;49.968;7.754;2022-09-09T00:08:20;96634.00;;;14.32;100.00
28606;BME280;46498;49.968;7.754;2022-09-09T00:13:38;96620.00;;;14.32;100.00
28606;BME280;46498;49.968;7.754;2022-09-09T00:25:52;96621.00;;;14.22;100.00
28606;BME280;46498;49.968;7.754;2022-09-09T00:30:55;96612.00;;;14.16;100.00
28606;BME280;46498;49.968;7.754;2022-09-09T00:35:57;96617.00;;;14.23;100.00
28606;BME280;46498;49.968;7.754;2022-09-09T00:41:09;96613.00;;;14.20;100.00
28606;BME280;46498;49.968;7.754;2022-09-09T00:55:05;96619.00;;;14.19;100.00
28606;BME280;46498;49.968;7.754;2022-09-09T01:00:27;96606.00;;;14.12;100.00
28606;BME280;46498;49.968;7.754;2022-09-09T01:05:38;96599.00;;;14.08;100.00
28606;BME280;46498;49.968;7.754;2022-09-09T01:10:52;96611.00;;;13.89;100.00
28606;BME280;46498;49.968;7.754;2022-09-09T01:15:59;96610.00;;;13.90;100.00
28606;BME280;46498;49.968;7.754;2022-09-09T01:29:25;96603.00;;;13.59;100.00
28606;BME280;46498;49.968;7.754;2022-09-09T01:34:31;96606.00;;;13.47;100.00
28606;BME280;46498;49.968;7.754;2022-09-09T01:39:35;96622.00;;;13.36;100.00
28606;BME280;46498;49.968;7.754;2022-09-09T01:44:41;96619.00;;;13.41;100.00
28606;BME280;46498;49.968;7.754;2022-09-09T01:49:42;96619.00;;;13.27;100.00
28606;BME280;46498;49.968;7.754;2022-09-09T01:54:52;96620.00;;;13.47;100.00
28606;BME280;46498;49.968;7.754;2022-09-09T02:00:10;96623.00;;;13.42;100.00
28606;BME280;46498;49.968;7.754;2022-09-09T02:05:37;96622.00;;;13.47;100.00
28606;BME280;46498;49.968;7.754;2022-09-09T02:17:10;96609.00;;;13.50;100.00
28606;BME280;46498;49.968;7.754;2022-09-09T02:22:33;96605.00;;;13.25;100.00
28606;BME280;46498;49.968;7.754;2022-09-09T02:27:36;96603.00;;;13.29;100.00
28606;BME280;46498;49.968;7.754;2022-09-09T02:32:39;96606.00;;;13.31;100.00
28606;BME280;46498;49.968;7.754;2022-09-09T02:37:44;96607.00;;;13.15;100.00
28606;BME280;46498;49.968;7.754;2022-09-09T02:42:51;96596.00;;;13.19;100.00
28606;BME280;46498;49.968;7.754;2022-09-09T02:48:09;96596.00;;;13.29;100.00
28606;BME280;46498;49.968;7.754;2022-09-09T02:54:37;96584.00;;;13.31;100.00
28606;BME280;46498;49.968;7.754;2022-09-09T02:59:44;96591.00;;;13.28;100.00
28606;BME280;46498;49.968;7.754;2022-09-09T03:04:45;96587.00;;;13.36;100.00
28606;BME280;46498;49.968;7.754;2022-09-09T03:09:51;96607.00;;;13.22;100.00
28606;BME280;46498;49.968;7.754;2022-09-09T03:14:58;96606.00;;;13.31;100.00
28606;BME280;46498;49.968;7.754;2022-09-09T03:19:59;96607.00;;;13.23;100.00
28606;BME280;46498;49.968;7.754;2022-09-09T03:25:00;96617.00;;;13.22;100.00
28606;BME280;46498;49.968;7.754;2022-09-09T03:30:02;96617.00;;;13.32;100.00
28606;BME280;46498;49.968;7.754;2022-09-09T03:35:04;96619.00;;;13.32;100.00
28606;BME280;46498;49.968;7.754;2022-09-09T03:40:08;96618.00;;;13.23;100.00
28606;BME280;46498;49.968;7.754;2022-09-09T03:45:11;96608.00;;;13.27;100.00
28606;BME280;46498;49.968;7.754;2022-09-09T03:50:12;96596.00;;;13.40;100.00
28606;BME280;46498;49.968;7.754;2022-09-09T03:55:17;96587.00;;;13.43;100.00
28606;BME280;46498;49.968;7.754;2022-09-09T04:00:20;96580.00;;;13.46;100.00
28606;BME280;46498;49.968;7.754;2022-09-09T04:05:24;96577.00;;;13.42;100.00
28606;BME280;46498;49.968;7.754;2022-09-09T04:10:25;96583.00;;;13.42;100.00
28606;BME280;46498;49.968;7.754;2022-09-09T04:15:28;96580.00;;;13.42;100.00
28606;BME280;46498;49.968;7.754;2022-09-09T04:20:30;96579.00;;;13.38;100.00
28606;BME280;46498;49.968;7.754;2022-09-09T04:25:31;96599.00;;;13.44;100.00
28606;BME280;46498;49.968;7.754;2022-09-09T04:30:32;96600.00;;;13.57;100.00
28606;BME280;46498;49.968;7.754;2022-09-09T04:35:35;96602.00;;;13.58;100.00
28606;BME280;46498;49.968;7.754;2022-09-09T04:40:36;96605.00;;;13.60;100.00
28606;BME280;46498;49.968;7.754;2022-09-09T04:45:38;96598.00;;;13.52;100.00
28606;BME280;46498;49.968;7.754;2022-09-09T04:50:41;96599.00;;;13.55;100.00
28606;BME280;46498;49.968;7.754;2022-09-09T04:55:43;96613.00;;;13.46;100.00
28606;BME280;46498;49.968;7.754;2022-09-09T05:00:44;96618.00;;;13.35;100.00
28606;BME280;46498;49.968;7.754;2022-09-09T05:05:45;96624.00;;;13.18;100.00
28606;BME280;46498;49.968;7.754;2022-09-09T05:10:47;96622.00;;;13.23;100.00
28606;BME280;46498;49.968;7.754;2022-09-09T05:15:52;96633.00;;;13.14;100.00
28606;BME280;46498;49.968;7.754;2022-09-09T05:20:58;96615.00;;;13.05;100.00
28606;BME280;46498;49.968;7.754;2022-09-09T05:26:02;96626.00;;;13.22;100.00
28606;BME280;46498;49.968;7.754;2022-09-09T05:31:06;96634.00;;;13.33;100.00
28606;BME280;46498;49.968;7.754;2022-09-09T05:36:12;96630.00;;;13.55;100.00
28606;BME280;46498;49.968;7.754;2022-09-09T05:41:17;96636.00;;;13.68;100.00
28606;BME280;46498;49.968;7.754;2022-09-09T05:46:23;96635.00;;;13.92;100.00
28606;BME280;46498;49.968;7.754;2022-09-09T05:51:27;96642.00;;;14.16;100.00
28606;BME280;46498;49.968;7.754;2022-09-09T05:56:31;96645.00;;;14.07;100.00
28606;BME280;46498;49.968;7.754;2022-09-09T06:01:36;96650.00;;;14.16;100.00
28606;BME280;46498;49.968;7.754;2022-09-09T06:06:42;96651.00;;;14.17;100.00
28606;BME280;46498;49.968;7.754;2022-09-09T06:11:47;96651.00;;;14.20;100.00
28606;BME280;46498;49.968;7.754;2022-09-09T06:16:48;96655.00;;;14.12;100.00
28606;BME280;46498;49.968;7.754;2022-09-09T06:21:53;96651.00;;;14.11;100.00
28606;BME280;46498;49.968;7.754;2022-09-09T06:26:55;96644.00;;;14.14;100.00
28606;BME280;46498;49.968;7.754;2022-09-09T06:32:01;96644.00;;;14.28;100.00
28606;BME280;46498;49.968;7.754;2022-09-09T06:37:03;96646.00;;;14.33;100.00
28606;BME280;46498;49.968;7.754;2022-09-09T06:42:21;96650.00;;;14.32;100.00
28606;BME280;46498;49.968;7.754;2022-09-09T06:48:24;96645.00;;;14.53;100.00
28606;BME280;46498;49.968;7.754;2022-09-09T06:53:26;96628.00;;;14.71;100.00
28606;BME280;46498;49.968;7.754;2022-09-09T06:58:29;96632.00;;;14.79;100.00
28606;BME280;46498;49.968;7.754;2022-09-09T07:03:30;96628.00;;;14.71;100.00
28606;BME280;46498;49.968;7.754;2022-09-09T07:08:32;96635.00;;;14.76;100.00
28606;BME280;46498;49.968;7.754;2022-09-09T07:13:34;96648.00;;;14.70;100.00
28606;BME280;46498;49.968;7.754;2022-09-09T07:18:36;96652.00;;;15.12;100.00
28606;BME280;46498;49.968;7.754;2022-09-09T07:23:37;96653.00;;;15.34;100.00
28606;BME280;46498;49.968;7.754;2022-09-09T07:28:39;96641.00;;;15.47;99.65
28606;BME280;46498;49.968;7.754;2022-09-09T07:33:42;96639.00;;;15.28;99.53
28606;BME280;46498;49.968;7.754;2022-09-09T07:38:51;96646.00;;;15.31;98.69
28606;BME280;46498;49.968;7.754;2022-09-09T07:43:53;96654.00;;;15.22;98.54
28606;BME280;46498;49.968;7.754;2022-09-09T07:48:56;96664.00;;;14.91;99.68
28606;BME280;46498;49.968;7.754;2022-09-09T07:54:04;96666.00;;;14.88;99.24
28606;BME280;46498;49.968;7.754;2022-09-09T07:59:06;96674.00;;;15.26;98.60
28606;BME280;46498;49.968;7.754;2022-09-09T08:04:14;96662.00;;;15.71;93.49
28606;BME280;46498;49.968;7.754;2022-09-09T08:09:24;96678.00;;;16.21;91.75
28606;BME280;46498;49.968;7.754;2022-09-09T08:14:28;96690.00;;;16.16;87.83
28606;BME280;46498;49.968;7.754;2022-09-09T08:19:30;96683.00;;;15.62;89.93
28606;BME280;46498;49.968;7.754;2022-09-09T08:24:35;96688.00;;;15.38;93.22
28606;BME280;46498;49.968;7.754;2022-09-09T08:29:36;96685.00;;;15.67;92.98
28606;BME280;46498;49.968;7.754;2022-09-09T08:34:38;96692.00;;;15.87;92.76
28606;BME280;46498;49.968;7.754;2022-09-09T08:39:43;96696.00;;;15.92;88.55
28606;BME280;46498;49.968;7.754;2022-09-09T08:45:47;96697.00;;;16.12;87.54
28606;BME280;46498;49.968;7.754;2022-09-09T08:50:52;96704.00;;;15.81;86.10
28606;BME280;46498;49.968;7.754;2022-09-09T08:55:58;96701.00;;;15.97;85.81
28606;BME280;46498;49.968;7.754;2022-09-09T09:09:03;96711.00;;;16.71;81.39
28606;BME280;46498;49.968;7.754;2022-09-09T09:14:14;96706.00;;;17.41;75.36
28606;BME280;46498;49.968;7.754;2022-09-09T09:19:18;96702.00;;;16.74;72.72
28606;BME280;46498;49.968;7.754;2022-09-09T09:24:25;96704.00;;;16.45;75.06
28606;BME280;46498;49.968;7.754;2022-09-09T09:29:27;96714.00;;;16.84;76.37
28606;BME280;46498;49.968;7.754;2022-09-09T09:34:29;96721.00;;;17.47;70.64
28606;BME280;46498;49.968;7.754;2022-09-09T09:39:32;96711.00;;;17.53;67.82
28606;BME280;46498;49.968;7.754;2022-09-09T09:45:26;96710.00;;;17.70;66.68
28606;BME280;46498;49.968;7.754;2022-09-09T09:50:31;96710.00;;;17.06;71.31
28606;BME280;46498;49.968;7.754;2022-09-09T09:55:33;96711.00;;;16.76;72.21
28606;BME280;46498;49.968;7.754;2022-09-09T10:00:47;96702.00;;;16.78;74.59
28606;BME280;46498;49.968;7.754;2022-09-09T10:05:50;96708.00;;;17.59;72.66
28606;BME280;46498;49.968;7.754;2022-09-09T10:13:07;96697.00;;;17.85;65.46
28606;BME280;46498;49.968;7.754;2022-09-09T10:19:13;96690.00;;;18.46;60.90
28606;BME280;46498;49.968;7.754;2022-09-09T10:24:50;96703.00;;;18.75;60.29
28606;BME280;46498;49.968;7.754;2022-09-09T10:30:23;96692.00;;;18.36;63.57
28606;BME280;46498;49.968;7.754;2022-09-09T10:35:45;96690.00;;;18.72;62.09
28606;BME280;46498;49.968;7.754;2022-09-09T10:42:12;96692.00;;;18.50;67.56
28606;BME280;46498;49.968;7.754;2022-09-09T10:50:54;96689.00;;;18.83;63.99
28606;BME280;46498;49.968;7.754;2022-09-09T10:56:10;96679.00;;;18.26;65.26
28606;BME280;46498;49.968;7.754;2022-09-09T11:01:17;96702.00;;;18.92;65.02
28606;BME280;46498;49.968;7.754;2022-09-09T11:06:22;96693.00;;;19.59;61.47
28606;BME280;46498;49.968;7.754;2022-09-09T11:11:30;96686.00;;;19.76;58.09
28606;BME280;46498;49.968;7.754;2022-09-09T11:16:52;96699.00;;;19.36;60.70
28606;BME280;46498;49.968;7.754;2022-09-09T11:21:57;96695.00;;;18.93;61.92
28606;BME280;46498;49.968;7.754;2022-09-09T11:27:17;96693.00;;;18.49;64.49
28606;BME280;46498;49.968;7.754;2022-09-09T11:33:31;96693.00;;;17.70;68.38
28606;BME280;46498;49.968;7.754;2022-09-09T11:38:46;96703.00;;;16.76;76.44
28606;BME280;46498;49.968;7.754;2022-09-09T11:43:51;96704.00;;;16.56;83.12
28606;BME280;46498;49.968;7.754;2022-09-09T11:49:01;96707.00;;;16.93;80.61
28606;BME280;46498;49.968;7.754;2022-09-09T11:54:28;96701.00;;;17.33;82.25
28606;BME280;46498;49.968;7.754;2022-09-09T11:59:31;96701.00;;;17.49;75.96
28606;BME280;46498;49.968;7.754;2022-09-09T12:04:37;96689.00;;;17.61;75.03
28606;BME280;46498;49.968;7.754;2022-09-09T12:16:28;96691.00;;;18.16;68.99
28606;BME280;46498;49.968;7.754;2022-09-09T12:21:48;96686.00;;;18.13;71.42
28606;BME280;46498;49.968;7.754;2022-09-09T12:27:05;96681.00;;;18.27;68.64
28606;BME280;46498;49.968;7.754;2022-09-09T12:32:15;96676.00;;;18.87;67.27
28606;BME280;46498;49.968;7.754;2022-09-09T12:38:22;96674.00;;;19.31;62.18
28606;BME280;46498;49.968;7.754;2022-09-09T12:43:28;96663.00;;;18.87;63.39
28606;BME280;46498;49.968;7.754;2022-09-09T12:48:36;96667.00;;;19.22;63.25
28606;BME280;46498;49.968;7.754;2022-09-09T12:53:39;96678.00;;;19.33;63.92
28606;BME280;46498;49.968;7.754;2022-09-09T12:58:45;96684.00;;;18.99;65.11
28606;BME280;46498;49.968;7.754;2022-09-09T13:03:48;96680.00;;;19.29;65.75
28606;BME280;46498;49.968;7.754;2022-09-09T13:08:53;96680.00;;;18.95;66.53
28606;BME280;46498;49.968;7.754;2022-09-09T13:13:56;96676.00;;;17.86;72.05
28606;BME280;46498;49.968;7.754;2022-09-09T13:19:09;96684.00;;;17.22;75.93
28606;BME280;46498;49.968;7.754;2022-09-09T13:24:27;96698.00;;;16.41;87.23
28606;BME280;46498;49.968;7.754;2022-09-09T13:29:31;96687.00;;;16.05;95.78
28606;BME280;46498;49.968;7.754;2022-09-09T13:34:33;96695.00;;;15.53;100.00
28606;BME280;46498;49.968;7.754;2022-09-09T13:39:37;96688.00;;;15.32;100.00
28606;BME280;46498;49.968;7.754;2022-09-09T13:44:39;96687.00;;;15.95;100.00
28606;BME280;46498;49.968;7.754;2022-09-09T13:49:42;96680.00;;;16.18;100.00
28606;BME280;46498;49.968;7.754;2022-09-09T13:54:50;96682.00;;;16.85;99.14
28606;BME280;46498;49.968;7.754;2022-09-09T13:59:53;96684.00;;;16.75;94.86
28606;BME280;46498;49.968;7.754;2022-09-09T14:05:06;96675.00;;;17.41;96.19
28606;BME280;46498;49.968;7.754;2022-09-09T14:10:07;96663.00;;;17.83;90.46
28606;BME280;46498;49.968;7.754;2022-09-09T14:15:11;96654.00;;;17.63;86.47
28606;BME280;46498;49.968;7.754;2022-09-09T14:20:12;96651.00;;;17.81;85.63
28606;BME280;46498;49.968;7.754;2022-09-09T14:25:15;96662.00;;;17.86;84.73
28606;BME280;46498;49.968;7.754;2022-09-09T14:30:16;96660.00;;;17.92;81.92
28606;BME280;46498;49.968;7.754;2022-09-09T14:35:17;96646.00;;;17.36;81.20
28606;BME280;46498;49.968;7.754;2022-09-09T14:40:18;96641.00;;;17.56;80.29
28606;BME280;46498;49.968;7.754;2022-09-09T14:45:19;96653.00;;;17.35;79.47
28606;BME280;46498;49.968;7.754;2022-09-09T14:50:22;96658.00;;;17.22;80.10
28606;BME280;46498;49.968;7.754;2022-09-09T14:55:24;96647.00;;;17.26;78.17
28606;BME280;46498;49.968;7.754;2022-09-09T15:00:25;96645.00;;;17.01;81.22
28606;BME280;46498;49.968;7.754;2022-09-09T15:05:26;96644.00;;;16.87;81.72
28606;BME280;46498;49.968;7.754;2022-09-09T15:10:28;96652.00;;;16.29;86.21
28606;BME280;46498;49.968;7.754;2022-09-09T15:15:32;96675.00;;;15.96;89.64
28606;BME280;46498;49.968;7.754;2022-09-09T15:20:35;96666.00;;;15.92;93.52
28606;BME280;46498;49.968;7.754;2022-09-09T15:25:54;96653.00;;;16.01;96.22
28606;BME280;46498;49.968;7.754;2022-09-09T15:30:55;96678.00;;;16.59;93.93
28606;BME280;46498;49.968;7.754;2022-09-09T15:35:57;96672.00;;;16.35;94.32
28606;BME280;46498;49.968;7.754;2022-09-09T15:40:58;96675.00;;;16.37;93.55
28606;BME280;46498;49.968;7.754;2022-09-09T15:46:14;96672.00;;;16.15;93.90
28606;BME280;46498;49.968;7.754;2022-09-09T15:51:24;96680.00;;;15.76;96.59
28606;BME280;46498;49.968;7.754;2022-09-09T15:56:42;96679.00;;;15.70;97.60
28606;BME280;46498;49.968;7.754;2022-09-09T16:01:43;96695.00;;;15.54;98.48
28606;BME280;46498;49.968;7.754;2022-09-09T16:06:44;96698.00;;;15.45;96.83
28606;BME280;46498;49.968;7.754;2022-09-09T16:11:46;96692.00;;;15.32;96.44
28606;BME280;46498;49.968;7.754;2022-09-09T16:16:47;96688.00;;;15.19;95.41
28606;BME280;46498;49.968;7.754;2022-09-09T16:21:49;96702.00;;;15.14;95.53
28606;BME280;46498;49.968;7.754;2022-09-09T16:26:52;96698.00;;;14.98;99.27
28606;BME280;46498;49.968;7.754;2022-09-09T16:31:54;96701.00;;;15.04;98.39
28606;BME280;46498;49.968;7.754;2022-09-09T16:37:00;96703.00;;;14.91;100.00
28606;BME280;46498;49.968;7.754;2022-09-09T16:42:02;96701.00;;;14.74;100.00
28606;BME280;46498;49.968;7.754;2022-09-09T16:47:05;96708.00;;;14.52;100.00
28606;BME280;46498;49.968;7.754;2022-09-09T16:52:06;96712.00;;;14.52;100.00
28606;BME280;46498;49.968;7.754;2022-09-09T16:57:06;96714.00;;;14.47;100.00
28606;BME280;46498;49.968;7.754;2022-09-09T17:02:07;96721.00;;;14.46;100.00
28606;BME280;46498;49.968;7.754;2022-09-09T17:07:09;96735.00;;;14.52;100.00
28606;BME280;46498;49.968;7.754;2022-09-09T17:12:10;96741.00;;;14.62;100.00
28606;BME280;46498;49.968;7.754;2022-09-09T17:17:12;96737.00;;;14.68;100.00
28606;BME280;46498;49.968;7.754;2022-09-09T17:22:32;96748.00;;;14.69;100.00
28606;BME280;46498;49.968;7.754;2022-09-09T17:27:33;96750.00;;;14.33;100.00
28606;BME280;46498;49.968;7.754;2022-09-09T17:32:34;96742.00;;;14.28;100.00
28606;BME280;46498;49.968;7.754;2022-09-09T17:37:36;96728.00;;;14.22;100.00
28606;BME280;46498;49.968;7.754;2022-09-09T17:42:37;96731.00;;;14.24;100.00
28606;BME280;46498;49.968;7.754;2022-09-09T17:47:38;96722.00;;;14.10;100.00
28606;BME280;46498;49.968;7.754;2022-09-09T17:52:39;96722.00;;;14.30;100.00
28606;BME280;46498;49.968;7.754;2022-09-09T17:57:41;96741.00;;;13.70;100.00
28606;BME280;46498;49.968;7.754;2022-09-09T18:02:42;96746.00;;;13.51;100.00
28606;BME280;46498;49.968;7.754;2022-09-09T18:07:43;96753.00;;;13.55;100.00
28606;BME280;46498;49.968;7.754;2022-09-09T18:12:44;96762.00;;;13.50;100.00
28606;BME280;46498;49.968;7.754;2022-09-09T18:17:45;96758.00;;;13.53;100.00
28606;BME280;46498;49.968;7.754;2022-09-09T18:22:46;96760.00;;;13.49;100.00
28606;BME280;46498;49.968;7.754;2022-09-09T18:27:47;96766.00;;;13.37;100.00
28606;BME280;46498;49.968;7.754;2022-09-09T18:32:48;96770.00;;;13.27;100.00
28606;BME280;46498;49.968;7.754;2022-09-09T18:37:50;96780.00;;;13.38;100.00
28606;BME280;46498;49.968;7.754;2022-09-09T18:42:51;96789.00;;;13.09;100.00
28606;BME280;46498;49.968;7.754;2022-09-09T18:47:52;96797.00;;;13.05;100.00
28606;BME280;46498;49.968;7.754;2022-09-09T18:52:53;96790.00;;;13.08;100.00
28606;BME280;46498;49.968;7.754;2022-09-09T18:57:54;96795.00;;;13.02;100.00
28606;BME280;46498;49.968;7.754;2022-09-09T19:02:58;96798.00;;;13.04;100.00
28606;BME280;46498;49.968;7.754;2022-09-09T19:07:59;96791.00;;;13.09;100.00
28606;BME280;46498;49.968;7.754;2022-09-09T19:13:00;96779.00;;;13.16;100.00
28606;BME280;46498;49.968;7.754;2022-09-09T19:18:01;96773.00;;;13.20;100.00
28606;BME280;46498;49.968;7.754;2022-09-09T19:23:06;96770.00;;;13.16;100.00
28606;BME280;46498;49.968;7.754;2022-09-09T19:28:07;96767.00;;;13.12;100.00
28606;BME280;46498;49.968;7.754;2022-09-09T19:33:08;96780.00;;;13.19;100.00
28606;BME280;46498;49.968;7.754;2022-09-09T19:38:08;96777.00;;;13.24;100.00
28606;BME280;46498;49.968;7.754;2022-09-09T19:43:09;96780.00;;;13.18;100.00
28606;BME280;46498;49.968;7.754;2022-09-09T19:48:10;96792.00;;;13.11;100.00
28606;BME280;46498;49.968;7.754;2022-09-09T19:53:11;96792.00;;;13.02;100.00
28606;BME280;46498;49.968;7.754;2022-09-09T19:58:12;96792.00;;;13.06;100.00
28606;BME280;46498;49.968;7.754;2022-09-09T20:03:13;96797.00;;;13.14;100.00
28606;BME280;46498;49.968;7.754;2022-09-09T20:08:20;96793.00;;;13.03;100.00
28606;BME280;46498;49.968;7.754;2022-09-09T20:13:21;96805.00;;;12.95;100.00
28606;BME280;46498;49.968;7.754;2022-09-09T20:18:22;96806.00;;;12.87;100.00
28606;BME280;46498;49.968;7.754;2022-09-09T20:23:23;96804.00;;;12.89;100.00
28606;BME280;46498;49.968;7.754;2022-09-09T20:28:24;96810.00;;;12.91;100.00
28606;BME280;46498;49.968;7.754;2022-09-09T20:33:25;96810.00;;;12.88;100.00
28606;BME280;46498;49.968;7.754;2022-09-09T20:38:26;96810.00;;;12.88;100.00
28606;BME280;46498;49.968;7.754;2022-09-09T20:43:27;96816.00;;;12.84;100.00
28606;BME280;46498;49.968;7.754;2022-09-09T20:48:31;96808.00;;;12.80;100.00
28606;BME280;46498;49.968;7.754;2022-09-09T20:53:32;96809.00;;;12.80;100.00
28606;BME280;46498;49.968;7.754;2022-09-09T20:58:34;96811.00;;;12.81;100.00
28606;BME280;46498;49.968;7.754;2022-09-09T21:03:36;96809.00;;;12.64;100.00
28606;BME280;46498;49.968;7.754;2022-09-09T21:08:36;96802.00;;;12.75;100.00
28606;BME280;46498;49.968;7.754;2022-09-09T21:13:39;96803.00;;;12.62;100.00
28606;BME280;46498;49.968;7.754;2022-09-09T21:18:40;96803.00;;;12.64;100.00
28606;BME280;46498;49.968;7.754;2022-09-09T21:23:41;96801.00;;;12.57;100.00
28606;BME280;46498;49.968;7.754;2022-09-09T21:28:42;96799.00;;;12.64;100.00
28606;BME280;46498;49.968;7.754;2022-09-09T21:33:43;96804.00;;;12.75;100.00
28606;BME280;46498;49.968;7.754;2022-09-09T21:38:45;96805.00;;;12.68;100.00
28606;BME280;46498;49.968;7.754;2022-09-09T21:43:51;96796.00;;;12.50;100.00
28606;BME280;46498;49.968;7.754;2022-09-09T21:48:52;96807.00;;;12.41;100.00
28606;BME280;46498;49.968;7.754;2022-09-09T21:53:56;96800.00;;;12.42;100.00
28606;BME280;46498;49.968;7.754;2022-09-09T21:58:58;96808.00;;;12.51;100.00
28606;BME280;46498;49.968;7.754;2022-09-09T22:04:03;96796.00;;;12.45;100.00
28606;BME280;46498;49.968;7.754;2022-09-09T22:09:04;96803.00;;;12.57;100.00
28606;BME280;46498;49.968;7.754;2022-09-09T22:14:04;96800.00;;;12.56;100.00
28606;BME280;46498;49.968;7.754;2022-09-09T22:19:05;96800.00;;;12.65;100.00
28606;BME280;46498;49.968;7.754;2022-09-09T22:24:07;96800.00;;;12.69;100.00
28606;BME280;46498;49.968;7.754;2022-09-09T22:29:08;96790.00;;;12.59;100.00
28606;BME280;46498;49.968;7.754;2022-09-09T22:34:09;96790.00;;;12.64;100.00
28606;BME280;46498;49.968;7.754;2022-09-09T22:39:11;96798.00;;;12.64;100.00
28606;BME280;46498;49.968;7.754;2022-09-09T22:44:12;96801.00;;;12.64;100.00
28606;BME280;46498;49.968;7.754;2022-09-09T22:49:14;96803.00;;;12.64;100.00
28606;BME280;46498;49.968;7.754;2022-09-09T22:54:15;96808.00;;;12.65;100.00
28606;BME280;46498;49.968;7.754;2022-09-09T22:59:21;96812.00;;;12.68;100.00
28606;BME280;46498;49.968;7.754;2022-09-09T23:04:23;96822.00;;;12.62;100.00
28606;BME280;46498;49.968;7.754;2022-09-09T23:09:25;96821.00;;;12.68;100.00
28606;BME280;46498;49.968;7.754;2022-09-09T23:14:26;96813.00;;;12.73;100.00
28606;BME280;46498;49.968;7.754;2022-09-09T23:19:27;96814.00;;;12.83;100.00
28606;BME280;46498;49.968;7.754;2022-09-09T23:24:28;96804.00;;;12.76;100.00
28606;BME280;46498;49.968;7.754;2022-09-09T23:29:29;96812.00;;;12.69;100.00
28606;BME280;46498;49.968;7.754;2022-09-09T23:34:30;96812.00;;;12.73;100.00
28606;BME280;46498;49.968;7.754;2022-09-09T23:39:31;96814.00;;;12.72;100.00
28606;BME280;46498;49.968;7.754;2022-09-09T23:44:33;96816.00;;;12.73;100.00
28606;BME280;46498;49.968;7.754;2022-09-09T23:49:35;96813.00;;;12.75;100.00
28606;BME280;46498;49.968;7.754;2022-09-09T23:54:38;96810.00;;;12.71;100.00
28606;BME280;46498;49.968;7.754;2022-09-09T23:59:39;96810.00;;;12.63;100.00
